Аэропорт: Байкал. Улан-Удэ

ICAO: UIUU

METAR:
2020-10-24 06:30:00
UIUU 240630Z 10002MPS 060V130 9999 NSC 09/M04 Q1016 R26/CLRD60 NOSIG RMK QFE718/0958
METAR:
2020-10-24 05:00:00
TAF UIUU 240500Z 2406/2506 10003G08MPS 9999 NSC